createdAt,value
2018-07-22T00:03:19.273Z,96738.58
2018-07-22T00:08:13.915Z,96738.58
2018-07-22T00:13:08.470Z,96736.45
2018-07-22T00:18:03.045Z,96737.75
2018-07-22T00:22:57.812Z,96745.19
2018-07-22T00:27:52.641Z,96732.20
2018-07-22T00:32:47.190Z,96736.70
2018-07-22T00:37:42.274Z,96732.97
2018-07-22T00:42:36.981Z,96729.25
2018-07-22T00:47:31.586Z,96729.01
2018-07-22T00:52:26.131Z,96728.48
2018-07-22T00:57:20.697Z,96726.13
2018-07-22T01:02:15.300Z,96723.47
2018-07-22T01:07:09.929Z,96720.05
2018-07-22T01:12:04.526Z,96721.45
2018-07-22T01:16:59.092Z,96721.98
2018-07-22T01:21:53.667Z,96711.58
2018-07-22T01:26:48.261Z,96714.75
2018-07-22T01:31:42.488Z,96720.91
2018-07-22T01:36:37.041Z,96711.88
2018-07-22T01:41:31.242Z,96713.45
2018-07-22T01:46:25.825Z,96711.03
2018-07-22T01:51:20.420Z,96703.05
2018-07-22T01:56:14.965Z,96712.07
2018-07-22T02:01:09.505Z,96712.62
2018-07-22T02:06:04.101Z,96706.30
2018-07-22T02:10:58.628Z,96714.05
2018-07-22T02:15:53.170Z,96719.41
2018-07-22T02:20:47.772Z,96707.27
2018-07-22T02:25:42.296Z,96711.86
2018-07-22T02:30:36.829Z,96712.94
2018-07-22T02:35:31.373Z,96711.88
2018-07-22T02:40:25.933Z,96709.48
2018-07-22T02:45:20.460Z,96710.83
2018-07-22T02:50:15.028Z,96715.33
2018-07-22T02:55:09.560Z,96710.56
2018-07-22T03:00:05.088Z,96713.95
2018-07-22T03:04:59.622Z,96722.77
2018-07-22T03:09:54.198Z,96723.89
2018-07-22T03:14:48.725Z,96724.16
2018-07-22T03:19:43.285Z,96726.08
2018-07-22T03:24:37.850Z,96728.98
2018-07-22T03:29:32.359Z,96727.95
2018-07-22T03:34:26.897Z,96725.86
2018-07-22T03:39:21.427Z,96732.53
2018-07-22T03:44:15.916Z,96734.67
2018-07-22T03:49:10.450Z,96731.55
2018-07-22T03:54:05.061Z,96729.41
2018-07-22T03:58:59.589Z,96739.53
2018-07-22T04:03:54.141Z,96739.83
2018-07-22T04:08:48.659Z,96740.61
2018-07-22T04:13:43.193Z,96739.81
2018-07-22T04:18:43.818Z,96744.33
2018-07-22T04:23:38.362Z,96741.92
2018-07-22T04:28:32.960Z,96744.81
2018-07-22T04:33:27.538Z,96750.62
2018-07-22T04:38:22.142Z,96751.69
2018-07-22T04:43:16.795Z,96754.61
2018-07-22T04:48:11.406Z,96756.94
2018-07-22T04:53:06.009Z,96756.88
2018-07-22T04:58:00.607Z,96758.97
2018-07-22T05:02:55.105Z,96759.16
2018-07-22T05:07:49.594Z,96759.05
2018-07-22T05:12:44.222Z,96762.73
2018-07-22T05:17:38.738Z,96764.97
2018-07-22T05:22:33.315Z,96760.27
2018-07-22T05:27:27.881Z,96764.63
2018-07-22T05:32:22.388Z,96767.39
2018-07-22T05:37:16.884Z,96763.52
2018-07-22T05:42:11.411Z,96764.30
2018-07-22T05:47:06.194Z,96767.07
2018-07-22T05:52:00.725Z,96772.05
2018-07-22T05:56:55.291Z,96779.87
2018-07-22T06:01:49.801Z,96785.91
2018-07-22T06:06:44.317Z,96783.87
2018-07-22T06:11:39.076Z,96787.89
2018-07-22T06:16:33.870Z,96788.67
2018-07-22T06:21:28.591Z,96792.59
2018-07-22T06:26:23.334Z,96792.85
2018-07-22T06:31:17.904Z,96793.15
2018-07-22T06:36:12.418Z,96791.23
2018-07-22T06:41:07.017Z,96787.00
2018-07-22T06:46:01.545Z,96784.55
2018-07-22T06:50:56.112Z,96786.00
2018-07-22T06:55:51.525Z,96788.08
2018-07-22T07:00:46.174Z,96787.41
2018-07-22T07:05:40.948Z,96795.81
2018-07-22T07:10:35.230Z,96798.30
2018-07-22T07:15:29.828Z,96800.31
2018-07-22T07:20:24.340Z,96808.82
2018-07-22T07:25:18.872Z,96804.21
2018-07-22T07:30:13.465Z,96805.63
2018-07-22T07:35:08.070Z,96803.43
2018-07-22T07:40:02.623Z,96805.94
2018-07-22T07:44:57.174Z,96801.94
2018-07-22T07:49:52.007Z,96799.95
2018-07-22T07:54:46.702Z,96803.11
2018-07-22T07:59:41.265Z,96802.20
2018-07-22T08:04:35.743Z,96809.16
2018-07-22T08:09:30.338Z,96812.56
2018-07-22T08:14:24.978Z,96817.54
2018-07-22T08:19:19.591Z,96819.45
2018-07-22T08:24:14.193Z,96816.40
2018-07-22T08:29:22.676Z,96815.00
2018-07-22T08:34:17.573Z,96818.59
2018-07-22T08:39:12.174Z,96824.81
2018-07-22T08:44:07.201Z,96824.81
2018-07-22T08:49:01.891Z,96824.70
2018-07-22T08:53:56.451Z,96821.81
2018-07-22T08:58:51.059Z,96832.67
2018-07-22T09:03:45.623Z,96833.34
2018-07-22T09:08:40.206Z,96838.12
2018-07-22T09:13:34.825Z,96836.73
2018-07-22T09:18:29.378Z,96833.09
2018-07-22T09:23:23.943Z,96831.16
2018-07-22T09:28:18.493Z,96833.09
2018-07-22T09:33:13.568Z,96828.27
2018-07-22T09:38:08.141Z,96833.44
2018-07-22T09:43:02.402Z,96837.40
2018-07-22T09:47:56.959Z,96845.72
2018-07-22T09:52:51.507Z,96843.31
2018-07-22T09:57:46.130Z,96837.61
2018-07-22T10:02:40.463Z,96832.20
2018-07-22T10:07:34.989Z,96835.91
2018-07-22T10:12:29.677Z,96830.87
2018-07-22T10:17:24.474Z,96832.61
2018-07-22T10:22:19.065Z,96829.20
2018-07-22T10:27:13.670Z,96825.05
2018-07-22T10:32:08.331Z,96819.33
2018-07-22T10:37:02.895Z,96826.98
2018-07-22T10:41:57.482Z,96820.09
2018-07-22T10:46:52.104Z,96826.12
2018-07-22T10:51:46.687Z,96825.43
2018-07-22T10:56:41.233Z,96827.16
2018-07-22T11:01:35.516Z,96824.94
2018-07-22T11:06:30.222Z,96829.70
2018-07-22T11:11:24.765Z,96827.55
2018-07-22T11:16:19.388Z,96824.91
2018-07-22T11:21:14.021Z,96818.61
2018-07-22T11:26:08.517Z,96813.07
2018-07-22T11:31:03.068Z,96820.27
2018-07-22T11:35:57.658Z,96816.25
2018-07-22T11:40:52.208Z,96813.73
2018-07-22T11:45:46.711Z,96819.42
2018-07-22T11:50:41.286Z,96810.02
2018-07-22T11:55:35.946Z,96808.03
2018-07-22T12:00:30.485Z,96812.23
2018-07-22T12:05:25.176Z,96815.39
2018-07-22T12:10:19.765Z,96806.77
2018-07-22T12:15:14.296Z,96801.33
2018-07-22T12:20:08.901Z,96797.10
2018-07-22T12:25:03.539Z,96793.34
2018-07-22T12:29:57.881Z,96796.21
2018-07-22T12:34:52.445Z,96783.63
2018-07-22T12:39:47.009Z,96786.97
2018-07-22T12:44:41.576Z,96778.38
2018-07-22T12:49:36.136Z,96772.70
2018-07-22T12:54:30.775Z,96760.70
2018-07-22T12:59:25.333Z,96751.63
2018-07-22T13:04:19.960Z,96761.66
2018-07-22T13:09:14.554Z,96757.96
2018-07-22T13:14:09.301Z,96745.02
2018-07-22T13:19:03.877Z,96738.00
2018-07-22T13:23:58.444Z,96742.75
2018-07-22T13:28:53.090Z,96742.62
2018-07-22T13:33:47.755Z,96740.11
2018-07-22T13:38:42.566Z,96745.02
2018-07-22T13:43:37.142Z,96743.53
2018-07-22T13:48:31.684Z,96739.45
2018-07-22T13:53:26.287Z,96736.17
2018-07-22T13:58:20.836Z,96736.35
2018-07-22T14:03:15.390Z,96730.09
2018-07-22T14:08:09.973Z,96723.72
2018-07-22T14:13:04.335Z,96723.19
2018-07-22T14:17:58.902Z,96721.44
2018-07-22T14:22:53.477Z,96721.25
2018-07-22T14:27:47.763Z,96716.89
2018-07-22T14:32:42.581Z,96713.84
2018-07-22T14:37:37.213Z,96714.47
2018-07-22T14:42:31.790Z,96715.20
2018-07-22T14:47:26.517Z,96707.33
2018-07-22T14:52:21.149Z,96711.14
2018-07-22T14:57:15.945Z,96704.95
2018-07-22T15:02:10.695Z,96695.08
2018-07-22T15:07:05.355Z,96696.45
2018-07-22T15:12:00.238Z,96695.03
2018-07-22T15:16:54.898Z,96697.50
2018-07-22T15:21:49.518Z,96701.48
2018-07-22T15:26:44.216Z,96698.34
2018-07-22T15:31:38.786Z,96698.84
2018-07-22T15:36:33.163Z,96694.80
2018-07-22T15:41:27.757Z,96698.66
2018-07-22T15:46:22.315Z,96693.48
2018-07-22T15:51:17.085Z,96690.45
2018-07-22T15:56:11.654Z,96695.16
2018-07-22T16:01:06.521Z,96694.41
2018-07-22T16:06:01.195Z,96702.84
2018-07-22T16:10:55.932Z,96705.63
2018-07-22T16:15:50.582Z,96707.67
2018-07-22T16:20:45.445Z,96714.39
2018-07-22T16:25:40.020Z,96720.69
2018-07-22T16:30:34.655Z,96757.86
2018-07-22T16:35:29.332Z,96767.34
2018-07-22T16:40:23.982Z,96781.98
2018-07-22T16:45:18.556Z,96794.91
2018-07-22T16:50:13.135Z,96804.00
2018-07-22T16:55:07.932Z,96805.03
2018-07-22T17:00:02.506Z,96805.73
2018-07-22T17:04:57.239Z,96800.30
2018-07-22T17:09:51.559Z,96807.17
2018-07-22T17:14:46.153Z,96811.73
2018-07-22T17:19:40.527Z,96809.60
2018-07-22T17:24:35.082Z,96807.93
2018-07-22T17:29:29.625Z,96809.83
2018-07-22T17:34:24.185Z,96804.37
2018-07-22T17:39:18.975Z,96816.13
2018-07-22T17:44:13.251Z,96801.84
2018-07-22T17:49:08.209Z,96810.09
2018-07-22T17:54:02.923Z,96807.02
2018-07-22T17:58:57.451Z,96816.13
2018-07-22T18:03:51.996Z,96818.98
2018-07-22T18:08:46.532Z,96815.81
2018-07-22T18:13:41.065Z,96815.92
2018-07-22T18:18:35.644Z,96820.11
2018-07-22T18:23:30.296Z,96817.48
2018-07-22T18:28:24.929Z,96809.41
2018-07-22T18:33:19.619Z,96825.73
2018-07-22T18:38:14.544Z,96821.66
2018-07-22T18:43:09.113Z,96837.01
2018-07-22T18:48:03.729Z,96842.73
2018-07-22T18:52:58.331Z,96851.91
2018-07-22T18:57:52.869Z,96867.77
2018-07-22T19:02:47.470Z,96876.53
2018-07-22T19:07:42.075Z,96895.35
2018-07-22T19:12:36.729Z,96903.21
2018-07-22T19:17:31.254Z,96903.59
2018-07-22T19:22:25.815Z,96907.09
2018-07-22T19:27:20.421Z,96906.56
2018-07-22T19:32:15.017Z,96914.20
2018-07-22T19:37:09.825Z,96920.50
2018-07-22T19:42:04.768Z,96928.95
2018-07-22T19:46:59.377Z,96929.89
2018-07-22T19:51:54.000Z,96930.19
2018-07-22T19:56:48.473Z,96937.97
2018-07-22T20:01:43.649Z,96944.37
2018-07-22T20:06:38.576Z,96944.37
2018-07-22T20:11:33.132Z,96941.16
2018-07-22T20:16:27.672Z,96943.30
2018-07-22T20:21:22.206Z,96943.02
2018-07-22T20:26:16.729Z,96937.66
2018-07-22T20:31:11.221Z,96933.67
2018-07-22T20:36:05.947Z,96928.63
2018-07-22T20:41:00.490Z,96933.71
2018-07-22T20:45:55.050Z,96932.94
2018-07-22T20:50:49.609Z,96932.38
2018-07-22T20:55:44.113Z,96933.97
2018-07-22T21:00:38.609Z,96928.95
2018-07-22T21:05:33.285Z,96939.30
2018-07-22T21:10:27.772Z,96945.43
2018-07-22T21:15:22.261Z,96948.94
2018-07-22T21:20:17.803Z,96945.73
2018-07-22T21:25:12.625Z,96947.37
2018-07-22T21:30:08.540Z,96955.91
2018-07-22T21:35:03.008Z,96956.70
2018-07-22T21:39:57.558Z,96953.80
2018-07-22T21:44:52.101Z,96950.61
2018-07-22T21:49:46.633Z,96949.53
2018-07-22T21:54:41.201Z,96954.59
2018-07-22T21:59:35.717Z,96946.36
2018-07-22T22:04:30.465Z,96941.56
2018-07-22T22:09:25.053Z,96938.38
2018-07-22T22:14:19.697Z,96939.72
2018-07-22T22:19:14.404Z,96932.00
2018-07-22T22:24:09.066Z,96933.30
2018-07-22T22:29:03.540Z,96938.06
2018-07-22T22:33:58.132Z,96937.55
2018-07-22T22:38:52.767Z,96938.35
2018-07-22T22:43:47.317Z,96943.94
2018-07-22T22:48:41.865Z,96930.66
2018-07-22T22:53:36.485Z,96937.06
2018-07-22T22:58:47.945Z,96931.20
2018-07-22T23:03:42.462Z,96930.11
2018-07-22T23:08:36.687Z,96925.06
2018-07-22T23:13:31.275Z,96928.53
2018-07-22T23:18:25.765Z,96927.20
2018-07-22T23:23:20.485Z,96922.69
2018-07-22T23:28:15.067Z,96925.62
2018-07-22T23:33:09.549Z,96920.87
2018-07-22T23:38:04.106Z,96933.06
2018-07-22T23:42:58.647Z,96932.28
2018-07-22T23:47:53.146Z,96933.87
2018-07-22T23:52:47.706Z,96931.23
2018-07-22T23:57:42.248Z,96933.38
